Barr, Illinois
Current Conditions -  °F | °C
As of 9:55 PM on Saturday 20 Dec 2014 (Local Time) from K3LF Reporting Station
Overcast Overcast  
Wind Chill: 30°   Ceiling: 2900
Heat Index: 36°   Visibility: 10mi
Dew Point: 30°   Wind: 7mph
Humidity: 80%   Direction: 140°SE
Pressure: 30.24"   Gusts: NA
Location:  39.3923°N, 89.9237°W
Report Text: K3LF 210355Z AUTO 14006KT 10SM OVC029 02/M01 A3024 RMK AO2 T00211010
Loading
Personal Weather Stations






























Interactive Weather Map New forecast layout! Learn more

10-Day Weather Forecast

Advertisements
Track Severe Weather on mobile